Allerton, IL

4:05 AM CDT on August 24, 2016 (GMT -0500)
APRSWXNET | | Change Station

Elev 649 ft 39.80 °N, 87.98 °W | Updated 29 minutes ago

Clear
Clear
70 °F
Feels Like 70 °F
N
4
Wind Variable Wind from South
Gusts 9.0 mph

Today
High -- | Low -- °F
--% Chance of Precip.
Yesterday
High -- | Low -- °F
Precip. -- in
Pressure 30.08 in
Visibility 10.0 miles
Clouds Clear
Dew Point 66 °F
Humidity 88%
Rainfall in
Snow Depth Not available.
6:12 AM 7:34 PM
Waning Gibbous, 59% visible
METAR KCMI 240853Z 17009KT 10SM CLR 21/19 A3009 RMK AO2 SLP184 T02110189 58006
Pressure 30.08 in
Visibility 10.0 miles
Clouds Clear
Dew Point 66 °F
Humidity 88%
Rainfall in
Snow Depth Not available.
6:12 AM 7:34 PM
Waning Gibbous, 59% visible
METAR KCMI 240853Z 17009KT 10SM CLR 21/19 A3009 RMK AO2 SLP184 T02110189 58006

10-Day Weather Forecast

Almanac

Astronomy

Aug. 24, 2016 Rise Set
Actual Time
Civil Twilight
Nautical Twilight
Astronomical Twilight
Moon
Length of Visible Light
Length of Day
Tomorrow will be .
, % of the Moon is Illuminated

Today's Extremes

State Highs State Lows

Community

WunderPhotos

Upload Photos

1,934,560 photos uploaded!

WunderBlog® & News

Nearby

Air Quality

  Air Quality AQ Index Pollutant
Not available.

Snow Depth

Station Depth Elevation

Earthquake Activity

City Distance Mag. Time & Date
Minimum magnitude displayed is 2.5.

Coastal Water Temperatures

Place Temperature

Stations

Nearby Weather Stations

Station Location Temp. Windchill Dew Point Humidity Wind Precip. Elev Updated Type
                   

Watches & Warnings

There are currently no watches in effect.